Risto Pulkkinen 2:02:06 SkiErg

21,125

Meters

2:02:06.2

Time

2:53.4

Pace

1067

Calories

Average Watts67
Calories Per Hour524
Stroke Rate28
Stroke Count3430
Drag Factor65

August 24, 2019 16:57:00

Workout
SkiErg

Workout Type
Just Ski

Verified
Yes

Entered
ErgData iOS

Splits

Time Meters Pace Watts Cal/Hr Cal S/M
2:02:06.2 21,125 2:53.4 67 524 1067 28
5:00.0 839 2:58.7 61 504 42 28
10:00.0 878 2:50.8 70 540 45 26
15:00.0 867 2:53.0 68 528 44 26
20:00.0 859 2:54.6 66 516 43 27
25:00.0 860 2:54.4 66 516 43 26
30:00.0 860 2:54.4 66 516 43 27
35:00.0 844 2:57.7 62 504 42 29
40:00.0 860 2:54.4 66 516 43 31
45:00.0 851 2:56.2 64 516 43 27
50:00.0 857 2:55.0 65 516 43 27
55:00.0 864 2:53.6 67 528 44 27
1:00:00.0 855 2:55.4 65 516 43 29
1:05:00.0 880 2:50.4 71 540 45 30
1:10:00.0 863 2:53.8 67 528 44 30
1:15:00.0 859 2:54.6 66 516 43 29
1:20:00.0 868 2:52.8 68 528 44 27
1:25:00.0 878 2:50.8 70 540 45 29
1:30:00.0 861 2:54.2 66 516 43 28
1:35:00.0 860 2:54.4 66 516 43 27
1:40:00.0 867 2:53.0 68 528 44 30
1:45:00.0 876 2:51.2 70 528 44 30
1:50:00.0 877 2:51.0 70 540 45 28
1:55:00.0 877 2:51.0 70 540 45 28
2:00:00.0 890 2:48.5 73 540 45 29
2:02:06.2 373 2:49.1 72 541 19 28

Click and drag on the graph to zoom in on a section.

Workout Graph

Loading data.